Time;durP1;ratioP1;P1;durP2;ratioP2;P2;SDS_P1;SDS_P2;PMS_P1;PMS_P2;Temp;Humidity;BMP_temperature;BMP_pressure;BME280_temperature;BME280_humidity;BME280_pressure;Samples;Min_cycle;Max_cycle;Signal;HPM_P1;HPM_P2
2022/09/12 00:01:56;;;;;;;;;;;;;;;;;;5138362;27;19934;-22
2022/09/12 00:04:22;;;;;;;;;;;;;;;;;;5138408;27;19911;-22
2022/09/12 00:06:51;;;;;;;;;;;;;;;;;;5138351;27;19918;-26
2022/09/12 00:09:17;;;;;;;;;;;;;;;;;;5138332;27;20393;-26
2022/09/12 00:11:43;;;;;;;;;;;;;;;;;;5138259;27;19942;-22
2022/09/12 00:14:09;;;;;;;;;;;;;;;;;;5138180;27;20330;-23
2022/09/12 00:16:35;;;;;;;;;;;;;;;;;;5138211;27;19938;-28
2022/09/12 00:19:01;;;;;;;;;;;;;;;;;;5138145;27;19914;-26
2022/09/12 00:21:27;;;;;;;;;;;;;;;;;;5138030;27;20065;-23
2022/09/12 00:23:53;;;;;;;;;;;;;;;;;;5138062;27;19908;-22
2022/09/12 00:26:19;;;;;;;;;;;;;;;;;;5138258;27;19919;-24
2022/09/12 00:28:45;;;;;;;;;;;;;;;;;;5138158;27;20019;-24
2022/09/12 00:31:11;;;;;;;;;;;;;;;;;;5138151;27;19924;-25
2022/09/12 00:33:37;;;;;;;;;;;;;;;;;;5137833;27;20288;-27
2022/09/12 00:36:03;;;;;;;;;;;;;;;;;;5137798;27;20009;-24
2022/09/12 00:38:29;;;;;;;;;;;;;;;;;;5137621;27;19907;-26
2022/09/12 00:40:55;;;;;;;;;;;;;;;;;;5137564;27;20006;-27
2022/09/12 00:43:21;;;;;;;;;;;;;;;;;;5137569;27;19911;-24
2022/09/12 00:45:47;;;;;;;;;;;;;;;;;;5137592;27;19916;-28
2022/09/12 00:48:13;;;;;;;;;;;;;;;;;;5137723;27;19968;-23
2022/09/12 00:50:39;;;;;;;;;;;;;;;;;;5137876;27;19925;-24
2022/09/12 00:53:05;;;;;;;;;;;;;;;;;;5137550;27;19912;-27
2022/09/12 00:55:31;;;;;;;;;;;;;;;;;;5137493;27;19911;-24
2022/09/12 00:57:57;;;;;;;;;;;;;;;;;;5137237;27;19927;-22
2022/09/12 01:00:23;;;;;;;;;;;;;;;;;;5137105;27;20015;-27
2022/09/12 01:02:49;;;;;;;;;;;;;;;;;;5137459;27;19923;-28
2022/09/12 01:05:15;;;;;;;;;;;;;;;;;;5137251;27;19907;-25
2022/09/12 01:07:41;;;;;;;;;;;;;;;;;;5136749;27;19911;-27
2022/09/12 01:10:07;;;;;;;;;;;;;;;;;;5137094;27;19923;-24
2022/09/12 01:12:33;;;;;;;;;;;;;;;;;;5137261;27;19923;-22
2022/09/12 01:14:59;;;;;;;;;;;;;;;;;;5136892;27;19968;-26
2022/09/12 01:17:25;;;;;;;;;;;;;;;;;;5137111;27;20372;-25
2022/09/12 01:19:51;;;;;;;;;;;;;;;;;;5136773;27;20009;-26
2022/09/12 01:22:17;;;;;;;;;;;;;;;;;;5137767;27;19925;-26
2022/09/12 01:24:43;;;;;;;;;;;;;;;;;;5136730;27;19924;-26
2022/09/12 01:27:09;;;;;;;;;;;;;;;;;;5137228;27;19999;-26
2022/09/12 01:29:35;;;;;;;;;;;;;;;;;;5136680;27;19995;-26
2022/09/12 01:32:01;;;;;;;;;;;;;;;;;;5136949;27;19956;-23
2022/09/12 01:34:27;;;;;;;;;;;;;;;;;;5136931;27;19950;-23
2022/09/12 01:36:53;;;;;;;;;;;;;;;;;;5136493;27;20350;-26
2022/09/12 01:39:19;;;;;;;;;;;;;;;;;;5136849;27;19912;-27
2022/09/12 01:41:45;;;;;;;;;;;;;;;;;;5136719;27;19918;-23
2022/09/12 01:44:12;;;;;;;;;;;;;;;;;;5136685;27;19938;-24
2022/09/12 01:46:38;;;;;;;;;;;;;;;;;;5136303;27;19943;-26
2022/09/12 01:49:04;;;;;;;;;;;;;;;;;;5136239;27;19996;-32
2022/09/12 01:51:30;;;;;;;;;;;;;;;;;;5136570;27;19911;-25
2022/09/12 01:53:56;;;;;;;;;;;;;;;;;;5136543;27;19915;-24
2022/09/12 01:56:22;;;;;;;;;;;;;;;;;;5136435;27;19912;-22
2022/09/12 01:58:48;;;;;;;;;;;;;;;;;;5135968;27;20977;-27
2022/09/12 02:01:15;;;;;;;;;;;;;;;;;;5136083;27;19916;-25
2022/09/12 02:03:43;;;;;;;;;;;;;;;;;;5136420;27;19986;-23
2022/09/12 02:06:09;;;;;;;;;;;;;;;;;;5136344;27;20019;-24
2022/09/12 02:08:35;;;;;;;;;;;;;;;;;;5136031;27;19993;-26
2022/09/12 02:11:01;;;;;;;;;;;;;;;;;;5136332;27;20253;-23
2022/09/12 02:13:27;;;;;;;;;;;;;;;;;;5136265;27;19918;-23
2022/09/12 02:15:53;;;;;;;;;;;;;;;;;;5136308;27;19907;-27
2022/09/12 02:18:19;;;;;;;;;;;;;;;;;;5135574;27;19912;-23
2022/09/12 02:20:45;;;;;;;;;;;;;;;;;;5135917;27;19977;-27
2022/09/12 02:23:11;;;;;;;;;;;;;;;;;;5135913;27;20331;-25
2022/09/12 02:25:37;;;;;;;;;;;;;;;;;;5118384;27;19915;-27
2022/09/12 02:28:03;;;;;;;;;;;;;;;;;;5135696;27;19918;-23
2022/09/12 02:30:29;;;;;;;;;;;;;;;;;;5135972;27;19980;-24
2022/09/12 02:32:56;;;;;;;;;;;;;;;;;;5135712;28;19916;-28
2022/09/12 02:35:22;;;;;;;;;;;;;;;;;;5135594;28;20396;-22
2022/09/12 02:37:48;;;;;;;;;;;;;;;;;;5136106;28;19907;-25
2022/09/12 02:40:14;;;;;;;;;;;;;;;;;;5135932;28;19911;-22
2022/09/12 02:42:40;;;;;;;;;;;;;;;;;;5135594;28;20246;-23
2022/09/12 02:45:06;;;;;;;;;;;;;;;;;;5135563;28;20003;-22
2022/09/12 02:47:32;;;;;;;;;;;;;;;;;;5135486;28;19911;-24
2022/09/12 02:49:59;;;;;;;;;;;;;;;;;;5135582;28;19908;-24
2022/09/12 02:52:24;;;;;;;;;;;;;;;;;;5117460;28;20358;-24
2022/09/12 02:54:50;;;;;;;;;;;;;;;;;;5135623;28;19930;-22
2022/09/12 02:57:16;;;;;;;;;;;;;;;;;;5135740;28;19998;-26
2022/09/12 02:59:42;;;;;;;;;;;;;;;;;;5135420;28;20002;-29
2022/09/12 03:02:08;;;;;;;;;;;;;;;;;;5135292;28;19929;-23
2022/09/12 03:04:35;;;;;;;;;;;;;;;;;;5135443;28;19908;-25
2022/09/12 03:07:00;;;;;;;;;;;;;;;;;;5135514;28;19953;-22
2022/09/12 03:09:26;;;;;;;;;;;;;;;;;;5135310;28;20320;-26
2022/09/12 03:11:53;;;;;;;;;;;;;;;;;;5135317;28;19915;-24
2022/09/12 03:14:19;;;;;;;;;;;;;;;;;;5135623;28;19911;-25
2022/09/12 03:16:45;;;;;;;;;;;;;;;;;;5117139;28;19911;-23
2022/09/12 03:19:11;;;;;;;;;;;;;;;;;;5135130;28;20361;-24
2022/09/12 03:21:37;;;;;;;;;;;;;;;;;;5135140;28;19987;-29
2022/09/12 03:24:03;;;;;;;;;;;;;;;;;;5135257;28;19914;-28
2022/09/12 03:26:29;;;;;;;;;;;;;;;;;;5135218;28;19912;-28
2022/09/12 03:28:55;;;;;;;;;;;;;;;;;;5135177;28;20386;-26
2022/09/12 03:31:21;;;;;;;;;;;;;;;;;;5138093;27;19911;-25
2022/09/12 03:33:47;;;;;;;;;;;;;;;;;;5139042;27;19938;-23
2022/09/12 03:36:13;;;;;;;;;;;;;;;;;;5138942;27;19912;-24
2022/09/12 03:38:39;;;;;;;;;;;;;;;;;;5138729;27;19907;-23
2022/09/12 03:41:05;;;;;;;;;;;;;;;;;;5138798;27;20345;-32
2022/09/12 03:43:32;;;;;;;;;;;;;;;;;;5138875;27;19912;-23
2022/09/12 03:45:58;;;;;;;;;;;;;;;;;;5138943;27;20363;-25
2022/09/12 03:48:24;;;;;;;;;;;;;;;;;;5138490;27;19911;-26
2022/09/12 03:50:50;;;;;;;;;;;;;;;;;;5138761;27;19911;-25
2022/09/12 03:53:16;;;;;;;;;;;;;;;;;;5120858;27;20283;-29
2022/09/12 03:55:42;;;;;;;;;;;;;;;;;;5138743;27;19911;-30
2022/09/12 03:58:08;;;;;;;;;;;;;;;;;;5138499;27;19918;-24
2022/09/12 04:03:18;;;;;;;;;;;;;;;;;;5436746;22;19925;-23
2022/09/12 04:05:45;;;;;;;;;;;;;;;;;;5077009;28;19912;-24
2022/09/12 04:08:11;;;;;;;;;;;;;;;;;;5077026;28;19920;-24
2022/09/12 04:10:37;;;;;;;;;;;;;;;;;;5077164;28;19913;-24
2022/09/12 04:13:03;;;;;;;;;;;;;;;;;;5077070;28;19908;-24
2022/09/12 04:15:29;;;;;;;;;;;;;;;;;;5076761;28;19919;-23
2022/09/12 04:17:55;;;;;;;;;;;;;;;;;;5076607;28;19912;-24
2022/09/12 04:20:21;;;;;;;;;;;;;;;;;;5076711;28;19970;-24
2022/09/12 04:22:46;;;;;;;;;;;;;;;;;;5076648;28;19924;-24
2022/09/12 04:25:13;;;;;;;;;;;;;;;;;;5076663;28;19962;-24
2022/09/12 04:27:39;;;;;;;;;;;;;;;;;;5076644;28;19939;-23
2022/09/12 04:30:05;;;;;;;;;;;;;;;;;;5076487;28;19913;-24
2022/09/12 04:32:31;;;;;;;;;;;;;;;;;;5076342;28;19909;-24
2022/09/12 04:34:57;;;;;;;;;;;;;;;;;;5076517;28;20255;-24
2022/09/12 04:37:23;;;;;;;;;;;;;;;;;;5076401;28;20339;-24
2022/09/12 04:39:50;;;;;;;;;;;;;;;;;;5076321;28;20369;-24
2022/09/12 04:42:16;;;;;;;;;;;;;;;;;;5075528;28;20267;-24
2022/09/12 04:44:42;;;;;;;;;;;;;;;;;;5076504;28;19919;-22
2022/09/12 04:47:08;;;;;;;;;;;;;;;;;;5076275;28;20373;-24
2022/09/12 04:49:34;;;;;;;;;;;;;;;;;;5076071;28;19913;-25
2022/09/12 04:52:00;;;;;;;;;;;;;;;;;;5074765;28;19947;-25
2022/09/12 04:54:26;;;;;;;;;;;;;;;;;;5076016;28;19920;-24
2022/09/12 04:56:53;;;;;;;;;;;;;;;;;;5076058;28;20388;-24
2022/09/12 04:59:19;;;;;;;;;;;;;;;;;;5075889;28;19912;-24
2022/09/12 05:01:45;;;;;;;;;;;;;;;;;;5075844;28;19924;-24
2022/09/12 05:04:11;;;;;;;;;;;;;;;;;;5075404;28;19924;-24
2022/09/12 05:06:37;;;;;;;;;;;;;;;;;;5074252;28;19992;-24
2022/09/12 05:09:04;;;;;;;;;;;;;;;;;;5075632;28;20001;-24
2022/09/12 05:11:30;;;;;;;;;;;;;;;;;;5075258;28;19936;-24
2022/09/12 05:13:56;;;;;;;;;;;;;;;;;;5075331;28;19917;-24
2022/09/12 05:16:22;;;;;;;;;;;;;;;;;;5074037;28;19912;-24
2022/09/12 05:18:49;;;;;;;;;;;;;;;;;;5075278;28;19958;-24
2022/09/12 05:21:15;;;;;;;;;;;;;;;;;;5074140;28;19916;-24
2022/09/12 05:23:41;;;;;;;;;;;;;;;;;;5075107;28;19908;-24
2022/09/12 05:26:07;;;;;;;;;;;;;;;;;;5074309;28;19912;-24
2022/09/12 05:28:33;;;;;;;;;;;;;;;;;;5075501;28;19924;-23
2022/09/12 05:30:59;;;;;;;;;;;;;;;;;;5075343;28;20208;-23
2022/09/12 05:33:25;;;;;;;;;;;;;;;;;;5074981;28;19924;-24
2022/09/12 05:35:51;;;;;;;;;;;;;;;;;;5075247;28;19916;-24
2022/09/12 05:38:17;;;;;;;;;;;;;;;;;;5075444;28;19912;-24
2022/09/12 05:40:43;;;;;;;;;;;;;;;;;;5075018;28;19923;-24
2022/09/12 05:43:11;;;;;;;;;;;;;;;;;;5075054;28;19924;-23
2022/09/12 05:45:37;;;;;;;;;;;;;;;;;;5074571;28;19912;-24
2022/09/12 05:48:03;;;;;;;;;;;;;;;;;;5074334;28;19919;-24
2022/09/12 05:50:29;;;;;;;;;;;;;;;;;;5074454;28;19912;-24
2022/09/12 05:52:55;;;;;;;;;;;;;;;;;;5074503;28;20375;-24
2022/09/12 05:55:21;;;;;;;;;;;;;;;;;;5074600;28;19958;-23
2022/09/12 05:57:48;;;;;;;;;;;;;;;;;;5074453;28;19908;-23
2022/09/12 06:00:14;;;;;;;;;;;;;;;;;;5074524;28;19912;-24
2022/09/12 06:02:40;;;;;;;;;;;;;;;;;;5073829;28;19931;-23
2022/09/12 06:05:06;;;;;;;;;;;;;;;;;;5074360;28;19919;-23
2022/09/12 06:07:32;;;;;;;;;;;;;;;;;;5074132;28;19961;-23
2022/09/12 06:09:58;;;;;;;;;;;;;;;;;;5074311;28;19920;-23
2022/09/12 06:12:25;;;;;;;;;;;;;;;;;;5074421;28;19913;-24
2022/09/12 06:14:51;;;;;;;;;;;;;;;;;;5073864;28;19912;-22
2022/09/12 06:17:17;;;;;;;;;;;;;;;;;;5073571;28;19915;-25
2022/09/12 06:19:44;;;;;;;;;;;;;;;;;;5073724;28;19909;-25
2022/09/12 06:22:10;;;;;;;;;;;;;;;;;;5073495;28;20363;-24
2022/09/12 06:24:36;;;;;;;;;;;;;;;;;;5073424;28;19940;-23
2022/09/12 06:27:02;;;;;;;;;;;;;;;;;;5073486;28;20208;-24
2022/09/12 06:29:28;;;;;;;;;;;;;;;;;;5073513;28;19908;-24
2022/09/12 06:31:54;;;;;;;;;;;;;;;;;;5073344;28;19912;-24
2022/09/12 06:34:20;;;;;;;;;;;;;;;;;;5073492;28;19924;-24
2022/09/12 06:36:46;;;;;;;;;;;;;;;;;;5072420;28;19912;-23
2022/09/12 06:39:12;;;;;;;;;;;;;;;;;;5074305;28;19964;-23
2022/09/12 06:41:38;;;;;;;;;;;;;;;;;;5073098;28;19986;-24
2022/09/12 06:44:05;;;;;;;;;;;;;;;;;;5074196;28;20303;-24
2022/09/12 06:46:31;;;;;;;;;;;;;;;;;;5074043;28;19924;-25
2022/09/12 06:48:58;;;;;;;;;;;;;;;;;;5074032;28;19908;-25
2022/09/12 06:51:25;;;;;;;;;;;;;;;;;;5074111;28;19943;-25
2022/09/12 06:53:51;;;;;;;;;;;;;;;;;;5074111;28;19990;-24
2022/09/12 06:56:18;;;;;;;;;;;;;;;;;;5074181;28;20300;-25
2022/09/12 06:58:44;;;;;;;;;;;;;;;;;;5073691;28;19909;-23
2022/09/12 07:01:10;;;;;;;;;;;;;;;;;;5073540;28;19942;-23
2022/09/12 07:03:36;;;;;;;;;;;;;;;;;;5072476;28;20282;-24
2022/09/12 07:06:02;;;;;;;;;;;;;;;;;;5076291;28;19927;-24
2022/09/12 07:08:30;;;;;;;;;;;;;;;;;;5078121;28;19908;-24
2022/09/12 07:10:57;;;;;;;;;;;;;;;;;;5077565;28;19913;-23
2022/09/12 07:13:23;;;;;;;;;;;;;;;;;;5077451;28;19919;-23
2022/09/12 07:15:50;;;;;;;;;;;;;;;;;;5077577;28;19912;-23
2022/09/12 07:18:16;;;;;;;;;;;;;;;;;;5077666;28;19919;-23
2022/09/12 07:20:42;;;;;;;;;;;;;;;;;;5077478;28;20002;-23
2022/09/12 07:23:08;;;;;;;;;;;;;;;;;;5077924;28;19940;-23
2022/09/12 07:25:34;;;;;;;;;;;;;;;;;;5077766;28;19923;-23
2022/09/12 07:28:01;;;;;;;;;;;;;;;;;;5077243;28;19908;-23
2022/09/12 07:30:27;;;;;;;;;;;;;;;;;;5077314;28;19920;-23
2022/09/12 07:32:53;;;;;;;;;;;;;;;;;;5077245;28;19908;-30
2022/09/12 07:35:19;;;;;;;;;;;;;;;;;;5077182;28;19999;-23
2022/09/12 07:37:45;;;;;;;;;;;;;;;;;;5075620;28;19955;-23
2022/09/12 07:40:11;;;;;;;;;;;;;;;;;;5077035;28;19913;-23
2022/09/12 07:42:37;;;;;;;;;;;;;;;;;;5077002;28;19957;-23
2022/09/12 07:45:03;;;;;;;;;;;;;;;;;;5077064;28;19912;-23
2022/09/12 07:47:29;;;;;;;;;;;;;;;;;;5076797;28;19913;-23
2022/09/12 07:49:55;;;;;;;;;;;;;;;;;;5077001;28;19931;-23
2022/09/12 07:52:21;;;;;;;;;;;;;;;;;;5077069;28;20082;-23
2022/09/12 07:54:47;;;;;;;;;;;;;;;;;;5077182;28;19910;-24
2022/09/12 07:57:14;;;;;;;;;;;;;;;;;;5076782;28;19912;-24
2022/09/12 07:59:41;;;;;;;;;;;;;;;;;;5075486;28;19912;-24
2022/09/12 08:02:08;;;;;;;;;;;;;;;;;;5076035;28;20110;-24
2022/09/12 08:04:35;;;;;;;;;;;;;;;;;;5076545;28;20003;-24
2022/09/12 08:07:01;;;;;;;;;;;;;;;;;;5076958;28;19912;-24
2022/09/12 08:09:27;;;;;;;;;;;;;;;;;;5076822;28;19923;-24
2022/09/12 08:11:53;;;;;;;;;;;;;;;;;;5076556;28;19912;-24
2022/09/12 08:14:20;;;;;;;;;;;;;;;;;;5076501;28;19958;-24
2022/09/12 08:16:47;;;;;;;;;;;;;;;;;;5074990;28;19971;-24
2022/09/12 08:19:13;;;;;;;;;;;;;;;;;;5076104;28;19909;-23
2022/09/12 08:21:39;;;;;;;;;;;;;;;;;;5075942;28;19917;-24
2022/09/12 08:24:05;;;;;;;;;;;;;;;;;;5076230;28;19915;-25
2022/09/12 08:26:31;;;;;;;;;;;;;;;;;;5076265;28;20054;-24
2022/09/12 08:28:57;;;;;;;;;;;;;;;;;;5076791;28;19909;-24
2022/09/12 08:31:23;;;;;;;;;;;;;;;;;;5075784;28;19928;-24
2022/09/12 08:33:49;;;;;;;;;;;;;;;;;;5075961;28;19909;-24
2022/09/12 08:36:16;;;;;;;;;;;;;;;;;;5076095;28;19916;-25
2022/09/12 08:38:42;;;;;;;;;;;;;;;;;;5076123;28;20223;-24
2022/09/12 08:41:08;;;;;;;;;;;;;;;;;;5075484;28;20257;-24
2022/09/12 08:43:34;;;;;;;;;;;;;;;;;;5075373;28;19967;-24
2022/09/12 08:46:00;;;;;;;;;;;;;;;;;;5075261;28;19912;-24
2022/09/12 08:48:26;;;;;;;;;;;;;;;;;;5074963;28;20339;-25
2022/09/12 08:50:52;;;;;;;;;;;;;;;;;;5074870;28;19966;-24
2022/09/12 08:53:19;;;;;;;;;;;;;;;;;;5074841;28;19912;-24
2022/09/12 08:55:45;;;;;;;;;;;;;;;;;;5074814;28;19970;-24
2022/09/12 08:58:11;;;;;;;;;;;;;;;;;;5074954;28;20341;-24
2022/09/12 09:00:37;;;;;;;;;;;;;;;;;;5074672;28;19952;-24
2022/09/12 09:03:03;;;;;;;;;;;;;;;;;;5074192;28;19996;-24
2022/09/12 09:05:29;;;;;;;;;;;;;;;;;;5074560;28;19991;-24
2022/09/12 09:07:55;;;;;;;;;;;;;;;;;;5074430;28;19959;-25
2022/09/12 09:10:21;;;;;;;;;;;;;;;;;;5074608;28;20153;-24
2022/09/12 09:12:47;;;;;;;;;;;;;;;;;;5074345;28;20315;-25
2022/09/12 09:15:14;;;;;;;;;;;;;;;;;;5075010;28;19905;-24
2022/09/12 09:17:40;;;;;;;;;;;;;;;;;;5074217;28;19913;-28
2022/09/12 09:20:06;;;;;;;;;;;;;;;;;;5074346;28;19926;-25
2022/09/12 09:22:32;;;;;;;;;;;;;;;;;;5074241;28;19920;-25
2022/09/12 09:24:58;;;;;;;;;;;;;;;;;;5074943;28;19909;-25
2022/09/12 09:27:25;;;;;;;;;;;;;;;;;;5074725;28;20293;-25
2022/09/12 09:29:51;;;;;;;;;;;;;;;;;;5074947;28;19913;-24
2022/09/12 09:32:17;;;;;;;;;;;;;;;;;;5074951;28;20269;-24
2022/09/12 09:34:43;;;;;;;;;;;;;;;;;;5075085;28;19908;-24
2022/09/12 09:37:09;;;;;;;;;;;;;;;;;;5074962;28;20323;-24
2022/09/12 09:39:35;;;;;;;;;;;;;;;;;;5074960;28;20241;-24
2022/09/12 09:42:01;;;;;;;;;;;;;;;;;;5074676;28;20260;-24
2022/09/12 09:44:27;;;;;;;;;;;;;;;;;;5073491;28;19909;-25
2022/09/12 09:46:53;;;;;;;;;;;;;;;;;;5073402;28;20339;-24
2022/09/12 09:49:19;;;;;;;;;;;;;;;;;;5074543;28;20343;-24
2022/09/12 09:51:45;;;;;;;;;;;;;;;;;;5074374;28;20054;-25
2022/09/12 09:54:11;;;;;;;;;;;;;;;;;;5073513;28;20316;-25
2022/09/12 09:56:38;;;;;;;;;;;;;;;;;;5074621;28;19941;-29
2022/09/12 09:59:05;;;;;;;;;;;;;;;;;;5074754;28;20409;-24
2022/09/12 10:01:31;;;;;;;;;;;;;;;;;;5074323;28;19927;-23
2022/09/12 10:03:57;;;;;;;;;;;;;;;;;;5073933;28;20361;-24
2022/09/12 10:06:24;;;;;;;;;;;;;;;;;;5074035;28;19987;-25
2022/09/12 10:08:50;;;;;;;;;;;;;;;;;;5074122;28;19965;-24
2022/09/12 10:11:16;;;;;;;;;;;;;;;;;;5073897;28;19913;-24
2022/09/12 10:13:42;;;;;;;;;;;;;;;;;;5074215;28;19926;-24
2022/09/12 10:16:08;;;;;;;;;;;;;;;;;;5074252;28;19914;-24
2022/09/12 10:18:34;;;;;;;;;;;;;;;;;;5074758;28;19909;-23
2022/09/12 10:21:00;;;;;;;;;;;;;;;;;;5074458;28;20064;-23
2022/09/12 10:23:28;;;;;;;;;;;;;;;;;;5072655;28;19974;-24
2022/09/12 10:25:54;;;;;;;;;;;;;;;;;;5074238;28;19927;-23
2022/09/12 10:28:20;;;;;;;;;;;;;;;;;;5074014;28;19913;-23
2022/09/12 10:30:46;;;;;;;;;;;;;;;;;;5074293;28;19927;-23
2022/09/12 10:33:12;;;;;;;;;;;;;;;;;;5072715;28;20006;-25
2022/09/12 10:35:38;;;;;;;;;;;;;;;;;;5072917;28;20239;-23
2022/09/12 10:38:04;;;;;;;;;;;;;;;;;;5074122;28;19908;-23
2022/09/12 10:40:33;;;;;;;;;;;;;;;;;;5073129;28;19940;-23
2022/09/12 10:42:59;;;;;;;;;;;;;;;;;;5073675;28;19917;-23
2022/09/12 10:45:25;;;;;;;;;;;;;;;;;;5072860;28;19912;-23
2022/09/12 10:47:52;;;;;;;;;;;;;;;;;;5073858;28;19939;-23
2022/09/12 10:50:18;;;;;;;;;;;;;;;;;;5073831;28;19999;-23
2022/09/12 10:52:44;;;;;;;;;;;;;;;;;;5073857;28;20429;-23
2022/09/12 10:55:10;;;;;;;;;;;;;;;;;;5074033;28;20359;-23
2022/09/12 10:57:36;;;;;;;;;;;;;;;;;;5074318;28;19934;-23
2022/09/12 11:00:04;;;;;;;;;;;;;;;;;;5072249;28;19924;-23
2022/09/12 11:02:30;;;;;;;;;;;;;;;;;;5072413;28;19920;-23
2022/09/12 11:04:56;;;;;;;;;;;;;;;;;;5071727;28;20321;-23
2022/09/12 11:07:22;;;;;;;;;;;;;;;;;;5072945;28;19948;-23
2022/09/12 11:09:48;;;;;;;;;;;;;;;;;;5072787;28;20087;-23
2022/09/12 11:12:14;;;;;;;;;;;;;;;;;;5072716;28;20333;-23
2022/09/12 11:14:40;;;;;;;;;;;;;;;;;;5072775;28;20290;-23
2022/09/12 11:17:06;;;;;;;;;;;;;;;;;;5072793;28;19923;-24
2022/09/12 11:19:32;;;;;;;;;;;;;;;;;;5072863;28;19956;-23
2022/09/12 11:21:58;;;;;;;;;;;;;;;;;;5073179;28;20334;-23
2022/09/12 11:24:24;;;;;;;;;;;;;;;;;;5073820;28;19908;-23
2022/09/12 11:26:50;;;;;;;;;;;;;;;;;;5073373;28;20406;-23
2022/09/12 11:29:16;;;;;;;;;;;;;;;;;;5072099;28;20261;-23
2022/09/12 11:31:42;;;;;;;;;;;;;;;;;;5072609;28;20343;-23
2022/09/12 11:34:08;;;;;;;;;;;;;;;;;;5073957;28;19970;-23
2022/09/12 11:36:34;;;;;;;;;;;;;;;;;;5073524;28;19970;-23
2022/09/12 11:39:00;;;;;;;;;;;;;;;;;;5073837;28;19979;-23
2022/09/12 11:41:28;;;;;;;;;;;;;;;;;;5073291;28;19927;-24
2022/09/12 11:43:54;;;;;;;;;;;;;;;;;;5073315;28;19908;-23
2022/09/12 11:46:20;;;;;;;;;;;;;;;;;;5073673;28;20022;-24
2022/09/12 11:48:46;;;;;;;;;;;;;;;;;;5073669;28;19912;-24
2022/09/12 11:51:12;;;;;;;;;;;;;;;;;;5074915;28;19974;-24
2022/09/12 11:53:38;;;;;;;;;;;;;;;;;;5077100;28;20339;-23
2022/09/12 11:56:04;;;;;;;;;;;;;;;;;;5076948;28;19944;-24
2022/09/12 11:58:30;;;;;;;;;;;;;;;;;;5076962;28;19958;-24
2022/09/12 12:00:56;;;;;;;;;;;;;;;;;;5076669;28;19967;-24
2022/09/12 12:03:22;;;;;;;;;;;;;;;;;;5075422;28;19968;-24
2022/09/12 12:05:50;;;;;;;;;;;;;;;;;;5076410;28;19995;-24
2022/09/12 12:08:17;;;;;;;;;;;;;;;;;;5076846;28;19920;-24
2022/09/12 12:10:43;;;;;;;;;;;;;;;;;;5077015;28;19995;-23
2022/09/12 12:13:09;;;;;;;;;;;;;;;;;;5076528;28;19976;-24
2022/09/12 12:15:35;;;;;;;;;;;;;;;;;;5075530;28;19912;-23
2022/09/12 12:18:01;;;;;;;;;;;;;;;;;;5076818;28;20018;-23
2022/09/12 12:20:28;;;;;;;;;;;;;;;;;;5076256;28;19981;-23
2022/09/12 12:22:54;;;;;;;;;;;;;;;;;;5076287;28;19917;-23
2022/09/12 12:25:20;;;;;;;;;;;;;;;;;;5075253;28;19908;-24
2022/09/12 12:27:46;;;;;;;;;;;;;;;;;;5076756;28;20243;-24
2022/09/12 12:30:12;;;;;;;;;;;;;;;;;;5075457;28;20015;-24
2022/09/12 12:32:38;;;;;;;;;;;;;;;;;;5076664;28;20000;-24
2022/09/12 12:35:04;;;;;;;;;;;;;;;;;;5076352;28;20362;-24
2022/09/12 12:37:30;;;;;;;;;;;;;;;;;;5076613;28;19920;-24
2022/09/12 12:39:59;;;;;;;;;;;;;;;;;;5075265;28;19912;-24
2022/09/12 12:42:25;;;;;;;;;;;;;;;;;;5075753;28;20234;-25
2022/09/12 12:44:51;;;;;;;;;;;;;;;;;;5076184;28;20304;-23
2022/09/12 12:47:18;;;;;;;;;;;;;;;;;;5076050;28;20049;-23
2022/09/12 12:49:44;;;;;;;;;;;;;;;;;;5075864;28;19913;-23
2022/09/12 12:52:10;;;;;;;;;;;;;;;;;;5075814;28;20007;-23
2022/09/12 12:54:36;;;;;;;;;;;;;;;;;;5076169;28;19916;-24
2022/09/12 12:57:02;;;;;;;;;;;;;;;;;;5075637;28;19924;-24
2022/09/12 12:59:28;;;;;;;;;;;;;;;;;;5075525;28;19912;-23
2022/09/12 13:01:54;;;;;;;;;;;;;;;;;;5075416;28;20235;-24
2022/09/12 13:04:20;;;;;;;;;;;;;;;;;;5074955;28;19927;-24
2022/09/12 13:06:46;;;;;;;;;;;;;;;;;;5076376;28;19982;-25
2022/09/12 13:09:12;;;;;;;;;;;;;;;;;;5075942;28;19912;-25
2022/09/12 13:11:38;;;;;;;;;;;;;;;;;;5075615;28;19908;-25
2022/09/12 13:14:05;;;;;;;;;;;;;;;;;;5075547;28;20294;-24
2022/09/12 13:16:32;;;;;;;;;;;;;;;;;;5075810;28;19909;-24
2022/09/12 13:18:58;;;;;;;;;;;;;;;;;;5074362;28;19908;-24
2022/09/12 13:21:24;;;;;;;;;;;;;;;;;;5075334;28;19916;-24
2022/09/12 13:23:50;;;;;;;;;;;;;;;;;;5075031;28;20006;-24
2022/09/12 13:26:16;;;;;;;;;;;;;;;;;;5075049;28;19975;-24
2022/09/12 13:28:42;;;;;;;;;;;;;;;;;;5075156;28;19916;-24
2022/09/12 13:31:08;;;;;;;;;;;;;;;;;;5074916;28;20314;-23
2022/09/12 13:33:34;;;;;;;;;;;;;;;;;;5075020;28;19908;-24
2022/09/12 13:36:00;;;;;;;;;;;;;;;;;;5075330;28;20319;-24
2022/09/12 13:38:27;;;;;;;;;;;;;;;;;;5074864;28;19916;-24
2022/09/12 13:40:54;;;;;;;;;;;;;;;;;;5074667;28;19923;-24
2022/09/12 13:43:20;;;;;;;;;;;;;;;;;;5074810;28;20250;-24
2022/09/12 13:45:46;;;;;;;;;;;;;;;;;;5074448;28;19923;-24
2022/09/12 13:48:13;;;;;;;;;;;;;;;;;;5074357;28;19920;-24
2022/09/12 13:50:39;;;;;;;;;;;;;;;;;;5074761;28;20403;-24
2022/09/12 13:53:05;;;;;;;;;;;;;;;;;;5075301;28;19954;-24
2022/09/12 13:55:31;;;;;;;;;;;;;;;;;;5074833;28;20228;-24
2022/09/12 13:57:58;;;;;;;;;;;;;;;;;;5074329;28;20026;-24
2022/09/12 14:00:24;;;;;;;;;;;;;;;;;;5074476;28;20009;-24
2022/09/12 14:05:06;;;;;;;;;;;;;;;;;;5074260;28;19924;-24
2022/09/12 14:05:39;;;;;;;;;;;;;;;;;;5074419;28;19962;-23
2022/09/12 14:08:05;;;;;;;;;;;;;;;;;;5073400;28;19920;-24
2022/09/12 14:10:31;;;;;;;;;;;;;;;;;;5074080;28;19904;-24
2022/09/12 14:12:57;;;;;;;;;;;;;;;;;;5074125;28;19912;-24
2022/09/12 14:15:24;;;;;;;;;;;;;;;;;;5073375;28;19908;-24
2022/09/12 14:17:53;;;;;;;;;;;;;;;;;;5074088;28;19948;-24
2022/09/12 14:20:19;;;;;;;;;;;;;;;;;;5074204;28;20334;-24
2022/09/12 14:22:45;;;;;;;;;;;;;;;;;;5072751;28;20007;-25
2022/09/12 14:25:11;;;;;;;;;;;;;;;;;;5074287;28;19999;-24
2022/09/12 14:27:37;;;;;;;;;;;;;;;;;;5074191;28;20368;-24
2022/09/12 14:30:05;;;;;;;;;;;;;;;;;;5074480;28;19954;-24
2022/09/12 14:32:31;;;;;;;;;;;;;;;;;;5074060;28;19913;-24
2022/09/12 14:34:57;;;;;;;;;;;;;;;;;;5074349;28;20279;-23
2022/09/12 14:37:23;;;;;;;;;;;;;;;;;;5074477;28;19909;-24
2022/09/12 14:39:49;;;;;;;;;;;;;;;;;;5073988;28;20352;-24
2022/09/12 14:42:15;;;;;;;;;;;;;;;;;;5073727;28;20259;-25
2022/09/12 14:44:41;;;;;;;;;;;;;;;;;;5073977;28;19910;-25
2022/09/12 14:47:07;;;;;;;;;;;;;;;;;;5074154;28;19912;-23
2022/09/12 14:49:33;;;;;;;;;;;;;;;;;;5074222;28;19946;-23
2022/09/12 14:51:59;;;;;;;;;;;;;;;;;;5074507;28;20277;-22
2022/09/12 14:54:25;;;;;;;;;;;;;;;;;;5074134;28;19917;-25
2022/09/12 14:56:51;;;;;;;;;;;;;;;;;;5072795;28;20225;-25
2022/09/12 14:59:17;;;;;;;;;;;;;;;;;;5074288;28;19908;-25
2022/09/12 15:01:43;;;;;;;;;;;;;;;;;;5073850;28;20263;-25
2022/09/12 15:04:09;;;;;;;;;;;;;;;;;;5073883;28;20343;-25
2022/09/12 15:06:36;;;;;;;;;;;;;;;;;;5073803;28;19957;-25
2022/09/12 15:09:02;;;;;;;;;;;;;;;;;;5073782;28;19912;-25
2022/09/12 15:11:28;;;;;;;;;;;;;;;;;;5073661;28;19908;-25
2022/09/12 15:13:54;;;;;;;;;;;;;;;;;;5073481;28;19927;-25
2022/09/12 15:16:20;;;;;;;;;;;;;;;;;;5073264;28;19958;-25
2022/09/12 15:18:46;;;;;;;;;;;;;;;;;;5073316;28;19916;-23
2022/09/12 15:21:12;;;;;;;;;;;;;;;;;;5073256;28;19912;-23
2022/09/12 15:23:39;;;;;;;;;;;;;;;;;;5073041;28;19980;-24
2022/09/12 15:26:05;;;;;;;;;;;;;;;;;;5074484;28;20004;-24
2022/09/12 15:28:31;;;;;;;;;;;;;;;;;;5075800;28;19919;-24
2022/09/12 15:30:57;;;;;;;;;;;;;;;;;;5077145;28;20057;-24
2022/09/12 15:33:23;;;;;;;;;;;;;;;;;;5077074;28;19952;-24
2022/09/12 15:35:49;;;;;;;;;;;;;;;;;;5077079;28;19920;-24
2022/09/12 15:38:15;;;;;;;;;;;;;;;;;;5077216;28;19999;-24
2022/09/12 15:40:41;;;;;;;;;;;;;;;;;;5077522;28;20006;-24
2022/09/12 15:43:07;;;;;;;;;;;;;;;;;;5075962;28;19924;-24
2022/09/12 15:45:33;;;;;;;;;;;;;;;;;;5075995;28;20401;-24
2022/09/12 15:47:59;;;;;;;;;;;;;;;;;;5075941;28;19956;-24
2022/09/12 15:50:26;;;;;;;;;;;;;;;;;;5077099;28;19912;-24
2022/09/12 15:52:52;;;;;;;;;;;;;;;;;;5077332;28;19927;-24
2022/09/12 15:55:18;;;;;;;;;;;;;;;;;;5077517;28;19919;-24
2022/09/12 15:57:45;;;;;;;;;;;;;;;;;;5077121;28;20292;-24
2022/09/12 16:00:11;;;;;;;;;;;;;;;;;;5077919;28;19912;-24
2022/09/12 16:02:37;;;;;;;;;;;;;;;;;;5076609;28;19973;-24
2022/09/12 16:05:03;;;;;;;;;;;;;;;;;;5077123;28;19912;-23
2022/09/12 16:07:29;;;;;;;;;;;;;;;;;;5076894;28;19919;-23
2022/09/12 16:09:55;;;;;;;;;;;;;;;;;;5076982;28;20250;-23
2022/09/12 16:12:21;;;;;;;;;;;;;;;;;;5076726;28;19908;-23
2022/09/12 16:14:47;;;;;;;;;;;;;;;;;;5076837;28;19943;-23
2022/09/12 16:17:13;;;;;;;;;;;;;;;;;;5076706;28;19919;-23
2022/09/12 16:19:39;;;;;;;;;;;;;;;;;;5076702;28;19976;-23
2022/09/12 16:22:05;;;;;;;;;;;;;;;;;;5076385;28;19926;-23
2022/09/12 16:24:31;;;;;;;;;;;;;;;;;;5076680;28;19923;-23
2022/09/12 16:26:57;;;;;;;;;;;;;;;;;;5076386;28;19909;-23
2022/09/12 16:29:23;;;;;;;;;;;;;;;;;;5076507;28;19973;-23
2022/09/12 16:31:49;;;;;;;;;;;;;;;;;;5076726;28;20003;-23
2022/09/12 16:34:15;;;;;;;;;;;;;;;;;;5076082;28;19909;-24
2022/09/12 16:36:44;;;;;;;;;;;;;;;;;;5076440;28;20005;-24
2022/09/12 16:39:10;;;;;;;;;;;;;;;;;;5075050;28;19993;-24
2022/09/12 16:41:36;;;;;;;;;;;;;;;;;;5075965;28;19921;-24